sensor_id;sensor_type;location;lat;lon;timestamp;temperature;humidity
24146;DHT22;12308;50.948;4.706;2023-11-19T00:01:18;14.50;99.90
24146;DHT22;12308;50.948;4.706;2023-11-19T00:03:44;14.50;99.90
24146;DHT22;12308;50.948;4.706;2023-11-19T00:06:10;14.50;99.90
24146;DHT22;12308;50.948;4.706;2023-11-19T00:08:36;14.50;99.90
24146;DHT22;12308;50.948;4.706;2023-11-19T00:11:02;14.50;99.90
24146;DHT22;12308;50.948;4.706;2023-11-19T00:13:28;14.50;99.90
24146;DHT22;12308;50.948;4.706;2023-11-19T00:15:54;14.50;99.90
24146;DHT22;12308;50.948;4.706;2023-11-19T00:18:19;14.40;99.90
24146;DHT22;12308;50.948;4.706;2023-11-19T00:20:46;14.40;99.90
24146;DHT22;12308;50.948;4.706;2023-11-19T00:23:11;14.40;99.90
24146;DHT22;12308;50.948;4.706;2023-11-19T00:25:37;14.40;99.90
24146;DHT22;12308;50.948;4.706;2023-11-19T00:28:04;14.50;99.90
24146;DHT22;12308;50.948;4.706;2023-11-19T00:30:29;14.50;99.90
24146;DHT22;12308;50.948;4.706;2023-11-19T00:32:56;14.40;99.90
24146;DHT22;12308;50.948;4.706;2023-11-19T00:35:22;14.50;99.90
24146;DHT22;12308;50.948;4.706;2023-11-19T00:37:47;14.50;99.90
24146;DHT22;12308;50.948;4.706;2023-11-19T00:40:14;14.50;99.90
24146;DHT22;12308;50.948;4.706;2023-11-19T00:42:41;14.50;99.90
24146;DHT22;12308;50.948;4.706;2023-11-19T00:45:07;14.50;99.90
24146;DHT22;12308;50.948;4.706;2023-11-19T00:47:35;14.50;99.90
24146;DHT22;12308;50.948;4.706;2023-11-19T00:50:02;14.50;99.90
24146;DHT22;12308;50.948;4.706;2023-11-19T00:52:28;14.50;99.90
24146;DHT22;12308;50.948;4.706;2023-11-19T00:54:53;14.50;99.90
24146;DHT22;12308;50.948;4.706;2023-11-19T00:57:19;14.50;99.90
24146;DHT22;12308;50.948;4.706;2023-11-19T00:59:45;14.50;99.90
24146;DHT22;12308;50.948;4.706;2023-11-19T01:02:10;14.50;99.90
24146;DHT22;12308;50.948;4.706;2023-11-19T01:04:36;14.50;99.90
24146;DHT22;12308;50.948;4.706;2023-11-19T01:07:03;14.40;99.90
24146;DHT22;12308;50.948;4.706;2023-11-19T01:09:30;14.40;99.90
24146;DHT22;12308;50.948;4.706;2023-11-19T01:11:58;14.50;99.90
24146;DHT22;12308;50.948;4.706;2023-11-19T01:14:24;14.60;99.90
24146;DHT22;12308;50.948;4.706;2023-11-19T01:16:50;14.50;99.90
24146;DHT22;12308;50.948;4.706;2023-11-19T01:19:16;14.50;99.90
24146;DHT22;12308;50.948;4.706;2023-11-19T01:21:42;14.60;99.90
24146;DHT22;12308;50.948;4.706;2023-11-19T01:24:08;14.50;99.90
24146;DHT22;12308;50.948;4.706;2023-11-19T01:26:35;14.50;99.90
24146;DHT22;12308;50.948;4.706;2023-11-19T01:29:00;14.50;99.90
24146;DHT22;12308;50.948;4.706;2023-11-19T01:31:26;14.60;99.90
24146;DHT22;12308;50.948;4.706;2023-11-19T01:33:52;14.60;99.90
24146;DHT22;12308;50.948;4.706;2023-11-19T01:36:18;14.70;99.90
24146;DHT22;12308;50.948;4.706;2023-11-19T01:38:43;14.70;99.90
24146;DHT22;12308;50.948;4.706;2023-11-19T01:41:10;14.60;99.90
24146;DHT22;12308;50.948;4.706;2023-11-19T01:43:37;14.50;99.90
24146;DHT22;12308;50.948;4.706;2023-11-19T01:46:05;14.30;99.90
24146;DHT22;12308;50.948;4.706;2023-11-19T01:48:33;14.30;99.90
24146;DHT22;12308;50.948;4.706;2023-11-19T01:51:00;14.30;99.90
24146;DHT22;12308;50.948;4.706;2023-11-19T01:53:27;14.30;99.90
24146;DHT22;12308;50.948;4.706;2023-11-19T01:55:53;14.30;99.90
24146;DHT22;12308;50.948;4.706;2023-11-19T01:58:19;14.30;99.90
24146;DHT22;12308;50.948;4.706;2023-11-19T02:00:45;14.30;99.90
24146;DHT22;12308;50.948;4.706;2023-11-19T02:03:12;14.40;99.90
24146;DHT22;12308;50.948;4.706;2023-11-19T02:05:39;14.30;99.90
24146;DHT22;12308;50.948;4.706;2023-11-19T02:08:05;14.20;99.90
24146;DHT22;12308;50.948;4.706;2023-11-19T02:10:31;14.10;99.90
24146;DHT22;12308;50.948;4.706;2023-11-19T02:12:58;14.10;99.90
24146;DHT22;12308;50.948;4.706;2023-11-19T02:15:24;14.00;99.90
24146;DHT22;12308;50.948;4.706;2023-11-19T02:17:50;14.10;99.90
24146;DHT22;12308;50.948;4.706;2023-11-19T02:20:16;14.10;99.90
24146;DHT22;12308;50.948;4.706;2023-11-19T02:22:48;14.00;99.90
24146;DHT22;12308;50.948;4.706;2023-11-19T02:25:35;14.00;99.90
24146;DHT22;12308;50.948;4.706;2023-11-19T02:28:02;14.00;99.90
24146;DHT22;12308;50.948;4.706;2023-11-19T02:30:29;14.00;99.90
24146;DHT22;12308;50.948;4.706;2023-11-19T02:32:58;13.90;99.90
24146;DHT22;12308;50.948;4.706;2023-11-19T02:35:26;13.90;99.90
24146;DHT22;12308;50.948;4.706;2023-11-19T02:37:52;14.00;99.90
24146;DHT22;12308;50.948;4.706;2023-11-19T02:40:17;14.00;99.90
24146;DHT22;12308;50.948;4.706;2023-11-19T02:42:43;14.00;99.90
24146;DHT22;12308;50.948;4.706;2023-11-19T02:45:09;14.10;99.90
24146;DHT22;12308;50.948;4.706;2023-11-19T02:47:43;14.10;99.90
24146;DHT22;12308;50.948;4.706;2023-11-19T02:50:12;14.20;99.90
24146;DHT22;12308;50.948;4.706;2023-11-19T02:52:44;14.20;99.90
24146;DHT22;12308;50.948;4.706;2023-11-19T02:55:11;14.20;99.90
24146;DHT22;12308;50.948;4.706;2023-11-19T02:57:41;14.20;99.90
24146;DHT22;12308;50.948;4.706;2023-11-19T03:00:20;14.20;99.90
24146;DHT22;12308;50.948;4.706;2023-11-19T03:02:51;14.20;99.90
24146;DHT22;12308;50.948;4.706;2023-11-19T03:05:26;14.10;99.90
24146;DHT22;12308;50.948;4.706;2023-11-19T03:07:52;14.00;99.90
24146;DHT22;12308;50.948;4.706;2023-11-19T03:10:18;14.00;99.90
24146;DHT22;12308;50.948;4.706;2023-11-19T03:12:44;14.00;99.90
24146;DHT22;12308;50.948;4.706;2023-11-19T03:15:11;13.90;99.90
24146;DHT22;12308;50.948;4.706;2023-11-19T03:17:44;13.80;99.90
24146;DHT22;12308;50.948;4.706;2023-11-19T03:20:11;13.80;99.90
24146;DHT22;12308;50.948;4.706;2023-11-19T03:22:40;13.70;99.90
24146;DHT22;12308;50.948;4.706;2023-11-19T03:25:12;13.70;99.90
24146;DHT22;12308;50.948;4.706;2023-11-19T03:27:39;13.70;99.90
24146;DHT22;12308;50.948;4.706;2023-11-19T03:30:05;13.80;99.90
24146;DHT22;12308;50.948;4.706;2023-11-19T03:32:32;13.70;99.90
24146;DHT22;12308;50.948;4.706;2023-11-19T03:34:58;13.70;99.90
24146;DHT22;12308;50.948;4.706;2023-11-19T03:37:25;13.70;99.90
24146;DHT22;12308;50.948;4.706;2023-11-19T03:39:51;13.70;99.90
24146;DHT22;12308;50.948;4.706;2023-11-19T03:42:19;13.70;99.90
24146;DHT22;12308;50.948;4.706;2023-11-19T03:44:46;13.60;99.90
24146;DHT22;12308;50.948;4.706;2023-11-19T03:47:11;13.50;99.90
24146;DHT22;12308;50.948;4.706;2023-11-19T03:49:37;13.50;99.90
24146;DHT22;12308;50.948;4.706;2023-11-19T03:52:03;13.40;99.90
24146;DHT22;12308;50.948;4.706;2023-11-19T03:54:28;13.50;99.90
24146;DHT22;12308;50.948;4.706;2023-11-19T03:56:54;13.50;99.90
24146;DHT22;12308;50.948;4.706;2023-11-19T03:59:20;13.50;99.90
24146;DHT22;12308;50.948;4.706;2023-11-19T04:01:46;13.50;99.90
24146;DHT22;12308;50.948;4.706;2023-11-19T04:04:11;13.50;99.90
24146;DHT22;12308;50.948;4.706;2023-11-19T04:06:37;13.50;99.90
24146;DHT22;12308;50.948;4.706;2023-11-19T04:09:03;13.40;99.90
24146;DHT22;12308;50.948;4.706;2023-11-19T04:11:29;13.40;99.90
24146;DHT22;12308;50.948;4.706;2023-11-19T04:13:54;13.40;99.90
24146;DHT22;12308;50.948;4.706;2023-11-19T04:16:26;13.40;99.90
24146;DHT22;12308;50.948;4.706;2023-11-19T04:18:53;13.40;99.90
24146;DHT22;12308;50.948;4.706;2023-11-19T04:21:19;13.40;99.90
24146;DHT22;12308;50.948;4.706;2023-11-19T04:23:44;13.40;99.90
24146;DHT22;12308;50.948;4.706;2023-11-19T04:26:10;13.40;99.90
24146;DHT22;12308;50.948;4.706;2023-11-19T04:28:36;13.40;99.90
24146;DHT22;12308;50.948;4.706;2023-11-19T04:31:01;13.30;99.90
24146;DHT22;12308;50.948;4.706;2023-11-19T04:33:28;13.30;99.90
24146;DHT22;12308;50.948;4.706;2023-11-19T04:35:54;13.30;99.90
24146;DHT22;12308;50.948;4.706;2023-11-19T04:38:20;13.30;99.90
24146;DHT22;12308;50.948;4.706;2023-11-19T04:40:45;13.30;99.90
24146;DHT22;12308;50.948;4.706;2023-11-19T04:43:11;13.40;99.90
24146;DHT22;12308;50.948;4.706;2023-11-19T04:45:38;13.40;99.90
24146;DHT22;12308;50.948;4.706;2023-11-19T04:48:05;13.40;99.90
24146;DHT22;12308;50.948;4.706;2023-11-19T04:50:31;13.40;99.90
24146;DHT22;12308;50.948;4.706;2023-11-19T04:52:56;13.40;99.90
24146;DHT22;12308;50.948;4.706;2023-11-19T04:55:22;13.30;99.90
24146;DHT22;12308;50.948;4.706;2023-11-19T04:57:48;13.30;99.90
24146;DHT22;12308;50.948;4.706;2023-11-19T05:00:13;13.20;99.90
24146;DHT22;12308;50.948;4.706;2023-11-19T05:02:39;13.20;99.90
24146;DHT22;12308;50.948;4.706;2023-11-19T05:05:05;13.00;99.90
24146;DHT22;12308;50.948;4.706;2023-11-19T05:07:31;12.90;99.90
24146;DHT22;12308;50.948;4.706;2023-11-19T05:09:56;13.00;99.90
24146;DHT22;12308;50.948;4.706;2023-11-19T05:12:22;13.00;99.90
24146;DHT22;12308;50.948;4.706;2023-11-19T05:14:48;13.00;99.90
24146;DHT22;12308;50.948;4.706;2023-11-19T05:17:17;13.10;99.90
24146;DHT22;12308;50.948;4.706;2023-11-19T05:19:43;13.10;99.90
24146;DHT22;12308;50.948;4.706;2023-11-19T05:22:09;13.10;99.90
24146;DHT22;12308;50.948;4.706;2023-11-19T05:24:35;13.10;99.90
24146;DHT22;12308;50.948;4.706;2023-11-19T05:27:01;13.00;99.90
24146;DHT22;12308;50.948;4.706;2023-11-19T05:29:27;13.10;99.90
24146;DHT22;12308;50.948;4.706;2023-11-19T05:31:53;13.00;99.90
24146;DHT22;12308;50.948;4.706;2023-11-19T05:34:21;13.00;99.90
24146;DHT22;12308;50.948;4.706;2023-11-19T05:36:47;13.00;99.90
24146;DHT22;12308;50.948;4.706;2023-11-19T05:39:13;12.90;99.90
24146;DHT22;12308;50.948;4.706;2023-11-19T05:41:38;12.90;99.90
24146;DHT22;12308;50.948;4.706;2023-11-19T05:44:04;12.90;99.90
24146;DHT22;12308;50.948;4.706;2023-11-19T05:46:30;12.80;99.90
24146;DHT22;12308;50.948;4.706;2023-11-19T05:48:55;12.80;99.90
24146;DHT22;12308;50.948;4.706;2023-11-19T05:51:21;12.80;99.90
24146;DHT22;12308;50.948;4.706;2023-11-19T05:53:47;12.80;99.90
24146;DHT22;12308;50.948;4.706;2023-11-19T05:56:15;12.80;99.90
24146;DHT22;12308;50.948;4.706;2023-11-19T05:58:47;12.80;99.90
24146;DHT22;12308;50.948;4.706;2023-11-19T06:01:13;12.80;99.90
24146;DHT22;12308;50.948;4.706;2023-11-19T06:03:39;12.70;99.90
24146;DHT22;12308;50.948;4.706;2023-11-19T06:06:05;12.70;99.90
24146;DHT22;12308;50.948;4.706;2023-11-19T06:08:31;12.70;99.90
24146;DHT22;12308;50.948;4.706;2023-11-19T06:10:57;12.70;99.90
24146;DHT22;12308;50.948;4.706;2023-11-19T06:13:23;12.70;99.90
24146;DHT22;12308;50.948;4.706;2023-11-19T06:15:50;12.70;99.90
24146;DHT22;12308;50.948;4.706;2023-11-19T06:18:16;12.70;99.90
24146;DHT22;12308;50.948;4.706;2023-11-19T06:20:45;12.80;99.90
24146;DHT22;12308;50.948;4.706;2023-11-19T06:23:10;12.70;99.90
24146;DHT22;12308;50.948;4.706;2023-11-19T06:25:36;12.70;99.90
24146;DHT22;12308;50.948;4.706;2023-11-19T06:28:03;12.70;99.90
24146;DHT22;12308;50.948;4.706;2023-11-19T06:30:28;12.70;99.90
24146;DHT22;12308;50.948;4.706;2023-11-19T06:32:56;12.70;99.90
24146;DHT22;12308;50.948;4.706;2023-11-19T06:35:21;12.80;99.90
24146;DHT22;12308;50.948;4.706;2023-11-19T06:37:47;12.70;99.90
24146;DHT22;12308;50.948;4.706;2023-11-19T06:40:13;12.80;99.90
24146;DHT22;12308;50.948;4.706;2023-11-19T06:42:38;12.80;99.90
24146;DHT22;12308;50.948;4.706;2023-11-19T06:45:05;12.80;99.90
24146;DHT22;12308;50.948;4.706;2023-11-19T06:47:31;12.80;99.90
24146;DHT22;12308;50.948;4.706;2023-11-19T06:49:58;12.60;99.90
24146;DHT22;12308;50.948;4.706;2023-11-19T06:52:23;12.70;99.90
24146;DHT22;12308;50.948;4.706;2023-11-19T06:54:49;12.60;99.90
24146;DHT22;12308;50.948;4.706;2023-11-19T06:57:15;12.60;99.90
24146;DHT22;12308;50.948;4.706;2023-11-19T06:59:42;12.60;99.90
24146;DHT22;12308;50.948;4.706;2023-11-19T07:02:08;12.70;99.90
24146;DHT22;12308;50.948;4.706;2023-11-19T07:04:34;12.70;99.90
24146;DHT22;12308;50.948;4.706;2023-11-19T07:07:00;12.70;99.90
24146;DHT22;12308;50.948;4.706;2023-11-19T07:09:26;12.60;99.90
24146;DHT22;12308;50.948;4.706;2023-11-19T07:11:52;12.60;99.90
24146;DHT22;12308;50.948;4.706;2023-11-19T07:14:19;12.60;99.90
24146;DHT22;12308;50.948;4.706;2023-11-19T07:16:45;12.50;99.90
24146;DHT22;12308;50.948;4.706;2023-11-19T07:19:11;12.40;99.90
24146;DHT22;12308;50.948;4.706;2023-11-19T07:21:41;12.50;99.90
24146;DHT22;12308;50.948;4.706;2023-11-19T07:24:10;12.50;99.90
24146;DHT22;12308;50.948;4.706;2023-11-19T07:26:41;12.50;99.90
24146;DHT22;12308;50.948;4.706;2023-11-19T07:29:07;12.50;99.90
24146;DHT22;12308;50.948;4.706;2023-11-19T07:31:33;12.50;99.90
24146;DHT22;12308;50.948;4.706;2023-11-19T07:33:59;12.60;99.90
24146;DHT22;12308;50.948;4.706;2023-11-19T07:36:24;12.60;99.90
24146;DHT22;12308;50.948;4.706;2023-11-19T07:38:50;12.60;99.90
24146;DHT22;12308;50.948;4.706;2023-11-19T07:41:16;12.70;99.90
24146;DHT22;12308;50.948;4.706;2023-11-19T07:43:45;12.70;99.90
24146;DHT22;12308;50.948;4.706;2023-11-19T07:46:12;12.70;99.90
24146;DHT22;12308;50.948;4.706;2023-11-19T07:48:39;12.70;99.90
24146;DHT22;12308;50.948;4.706;2023-11-19T07:51:05;12.70;99.90
24146;DHT22;12308;50.948;4.706;2023-11-19T07:53:31;12.70;99.90
24146;DHT22;12308;50.948;4.706;2023-11-19T07:55:56;12.70;99.90
24146;DHT22;12308;50.948;4.706;2023-11-19T07:58:22;12.70;99.90
24146;DHT22;12308;50.948;4.706;2023-11-19T08:00:48;12.70;99.90
24146;DHT22;12308;50.948;4.706;2023-11-19T08:03:13;12.70;99.90
24146;DHT22;12308;50.948;4.706;2023-11-19T08:05:39;12.80;99.90
24146;DHT22;12308;50.948;4.706;2023-11-19T08:08:05;12.80;99.90
24146;DHT22;12308;50.948;4.706;2023-11-19T08:10:30;12.90;99.90
24146;DHT22;12308;50.948;4.706;2023-11-19T08:12:58;12.80;99.90
24146;DHT22;12308;50.948;4.706;2023-11-19T08:15:24;12.90;99.90
24146;DHT22;12308;50.948;4.706;2023-11-19T08:17:49;13.00;99.90
24146;DHT22;12308;50.948;4.706;2023-11-19T08:20:15;13.00;99.90
24146;DHT22;12308;50.948;4.706;2023-11-19T08:22:41;13.00;99.90
24146;DHT22;12308;50.948;4.706;2023-11-19T08:25:07;13.10;99.90
24146;DHT22;12308;50.948;4.706;2023-11-19T08:27:33;13.00;99.90
24146;DHT22;12308;50.948;4.706;2023-11-19T08:29:59;13.10;99.90
24146;DHT22;12308;50.948;4.706;2023-11-19T08:32:25;13.10;99.90
24146;DHT22;12308;50.948;4.706;2023-11-19T08:34:51;13.20;99.90
24146;DHT22;12308;50.948;4.706;2023-11-19T08:37:17;13.20;99.90
24146;DHT22;12308;50.948;4.706;2023-11-19T08:39:50;13.10;99.90
24146;DHT22;12308;50.948;4.706;2023-11-19T08:42:17;13.10;99.90
24146;DHT22;12308;50.948;4.706;2023-11-19T08:44:43;13.10;99.90
24146;DHT22;12308;50.948;4.706;2023-11-19T08:47:12;13.20;99.90
24146;DHT22;12308;50.948;4.706;2023-11-19T08:49:39;13.20;99.90
24146;DHT22;12308;50.948;4.706;2023-11-19T08:52:05;13.20;99.90
24146;DHT22;12308;50.948;4.706;2023-11-19T08:54:33;13.20;99.90
24146;DHT22;12308;50.948;4.706;2023-11-19T08:56:59;13.30;99.90
24146;DHT22;12308;50.948;4.706;2023-11-19T08:59:25;13.30;99.90
24146;DHT22;12308;50.948;4.706;2023-11-19T09:01:50;13.30;99.90
24146;DHT22;12308;50.948;4.706;2023-11-19T09:04:16;13.30;99.90
24146;DHT22;12308;50.948;4.706;2023-11-19T09:06:42;13.40;99.90
24146;DHT22;12308;50.948;4.706;2023-11-19T09:09:08;13.50;99.90
24146;DHT22;12308;50.948;4.706;2023-11-19T09:11:35;13.40;99.90
24146;DHT22;12308;50.948;4.706;2023-11-19T09:14:02;13.50;99.90
24146;DHT22;12308;50.948;4.706;2023-11-19T09:16:27;13.50;99.90
24146;DHT22;12308;50.948;4.706;2023-11-19T09:18:53;13.50;99.90
24146;DHT22;12308;50.948;4.706;2023-11-19T09:21:19;13.40;99.90
24146;DHT22;12308;50.948;4.706;2023-11-19T09:23:44;13.40;99.90
24146;DHT22;12308;50.948;4.706;2023-11-19T09:26:13;13.30;99.90
24146;DHT22;12308;50.948;4.706;2023-11-19T09:28:39;13.20;99.90
24146;DHT22;12308;50.948;4.706;2023-11-19T09:31:16;13.10;99.90
24146;DHT22;12308;50.948;4.706;2023-11-19T09:33:42;13.10;99.90
24146;DHT22;12308;50.948;4.706;2023-11-19T09:36:08;13.20;99.90
24146;DHT22;12308;50.948;4.706;2023-11-19T09:38:34;13.20;99.90
24146;DHT22;12308;50.948;4.706;2023-11-19T09:41:06;13.20;99.90
24146;DHT22;12308;50.948;4.706;2023-11-19T09:43:37;13.30;99.90
24146;DHT22;12308;50.948;4.706;2023-11-19T09:46:09;13.40;99.90
24146;DHT22;12308;50.948;4.706;2023-11-19T09:48:38;13.40;99.90
24146;DHT22;12308;50.948;4.706;2023-11-19T09:51:10;13.50;99.90
24146;DHT22;12308;50.948;4.706;2023-11-19T09:53:37;13.50;99.90
24146;DHT22;12308;50.948;4.706;2023-11-19T09:56:06;13.50;99.90
24146;DHT22;12308;50.948;4.706;2023-11-19T09:58:33;13.60;99.90
24146;DHT22;12308;50.948;4.706;2023-11-19T10:01:00;13.70;99.90
24146;DHT22;12308;50.948;4.706;2023-11-19T10:03:33;13.70;99.90
24146;DHT22;12308;50.948;4.706;2023-11-19T10:06:06;13.80;99.90
24146;DHT22;12308;50.948;4.706;2023-11-19T10:08:33;14.00;99.90
24146;DHT22;12308;50.948;4.706;2023-11-19T10:10:59;14.10;99.90
24146;DHT22;12308;50.948;4.706;2023-11-19T10:13:28;14.30;99.90
24146;DHT22;12308;50.948;4.706;2023-11-19T10:15:55;14.30;99.90
24146;DHT22;12308;50.948;4.706;2023-11-19T10:18:26;14.20;99.90
24146;DHT22;12308;50.948;4.706;2023-11-19T10:20:52;14.30;99.90
24146;DHT22;12308;50.948;4.706;2023-11-19T10:23:18;14.50;99.90
24146;DHT22;12308;50.948;4.706;2023-11-19T10:25:44;14.60;99.90
24146;DHT22;12308;50.948;4.706;2023-11-19T10:28:09;14.50;99.90
24146;DHT22;12308;50.948;4.706;2023-11-19T10:30:35;14.50;99.90
24146;DHT22;12308;50.948;4.706;2023-11-19T10:33:05;14.50;99.90
24146;DHT22;12308;50.948;4.706;2023-11-19T10:35:32;14.30;99.90
24146;DHT22;12308;50.948;4.706;2023-11-19T10:38:23;14.30;99.90
24146;DHT22;12308;50.948;4.706;2023-11-19T10:40:48;14.30;99.90
24146;DHT22;12308;50.948;4.706;2023-11-19T10:43:14;14.30;99.90
24146;DHT22;12308;50.948;4.706;2023-11-19T10:45:40;14.30;99.90
24146;DHT22;12308;50.948;4.706;2023-11-19T10:48:07;14.30;99.90
24146;DHT22;12308;50.948;4.706;2023-11-19T10:50:37;14.40;99.90
24146;DHT22;12308;50.948;4.706;2023-11-19T10:53:04;14.50;99.90
24146;DHT22;12308;50.948;4.706;2023-11-19T10:55:32;14.50;99.90
24146;DHT22;12308;50.948;4.706;2023-11-19T10:58:08;14.60;99.90
24146;DHT22;12308;50.948;4.706;2023-11-19T11:00:52;14.50;99.90
24146;DHT22;12308;50.948;4.706;2023-11-19T11:03:21;14.30;99.90
24146;DHT22;12308;50.948;4.706;2023-11-19T11:05:49;14.30;99.90
24146;DHT22;12308;50.948;4.706;2023-11-19T11:08:17;14.20;99.90
24146;DHT22;12308;50.948;4.706;2023-11-19T11:10:54;14.20;99.90
24146;DHT22;12308;50.948;4.706;2023-11-19T11:13:22;14.20;99.90
24146;DHT22;12308;50.948;4.706;2023-11-19T11:15:49;14.20;99.90
24146;DHT22;12308;50.948;4.706;2023-11-19T11:18:16;14.30;99.90
24146;DHT22;12308;50.948;4.706;2023-11-19T11:20:44;14.40;99.90
24146;DHT22;12308;50.948;4.706;2023-11-19T11:23:37;14.40;99.90
24146;DHT22;12308;50.948;4.706;2023-11-19T11:29:03;14.30;99.90
24146;DHT22;12308;50.948;4.706;2023-11-19T11:37:10;14.20;99.90
24146;DHT22;12308;50.948;4.706;2023-11-19T11:39:40;14.30;99.90
24146;DHT22;12308;50.948;4.706;2023-11-19T11:45:06;14.40;99.90
24146;DHT22;12308;50.948;4.706;2023-11-19T11:50:13;14.40;99.90
24146;DHT22;12308;50.948;4.706;2023-11-19T11:58:19;14.30;99.90
24146;DHT22;12308;50.948;4.706;2023-11-19T12:00:47;14.30;99.90
24146;DHT22;12308;50.948;4.706;2023-11-19T12:03:13;14.30;99.90
24146;DHT22;12308;50.948;4.706;2023-11-19T12:05:41;14.30;99.90
24146;DHT22;12308;50.948;4.706;2023-11-19T12:08:07;14.30;99.90
24146;DHT22;12308;50.948;4.706;2023-11-19T12:10:50;14.30;99.90
24146;DHT22;12308;50.948;4.706;2023-11-19T12:13:18;14.50;99.90
24146;DHT22;12308;50.948;4.706;2023-11-19T12:18:32;14.80;99.90
24146;DHT22;12308;50.948;4.706;2023-11-19T12:21:01;14.80;99.90
24146;DHT22;12308;50.948;4.706;2023-11-19T12:23:29;14.70;99.90
24146;DHT22;12308;50.948;4.706;2023-11-19T12:25:55;14.80;99.90
24146;DHT22;12308;50.948;4.706;2023-11-19T12:28:21;14.80;99.90
24146;DHT22;12308;50.948;4.706;2023-11-19T12:30:48;14.90;99.90
24146;DHT22;12308;50.948;4.706;2023-11-19T12:33:14;15.00;99.90
24146;DHT22;12308;50.948;4.706;2023-11-19T12:35:41;15.00;99.90
24146;DHT22;12308;50.948;4.706;2023-11-19T12:38:08;15.00;99.90
24146;DHT22;12308;50.948;4.706;2023-11-19T12:40:43;14.90;99.90
24146;DHT22;12308;50.948;4.706;2023-11-19T12:43:09;14.80;99.90
24146;DHT22;12308;50.948;4.706;2023-11-19T12:45:37;14.80;99.90
24146;DHT22;12308;50.948;4.706;2023-11-19T12:48:05;14.70;99.90
24146;DHT22;12308;50.948;4.706;2023-11-19T12:50:54;14.50;99.90
24146;DHT22;12308;50.948;4.706;2023-11-19T12:53:23;14.50;99.90
24146;DHT22;12308;50.948;4.706;2023-11-19T12:55:50;14.50;99.90
24146;DHT22;12308;50.948;4.706;2023-11-19T12:58:35;14.60;99.90
24146;DHT22;12308;50.948;4.706;2023-11-19T13:01:06;14.80;99.90
24146;DHT22;12308;50.948;4.706;2023-11-19T13:03:34;14.70;99.90
24146;DHT22;12308;50.948;4.706;2023-11-19T13:08:50;14.60;99.90
24146;DHT22;12308;50.948;4.706;2023-11-19T13:11:36;14.30;99.90
24146;DHT22;12308;50.948;4.706;2023-11-19T13:14:03;14.30;99.90
24146;DHT22;12308;50.948;4.706;2023-11-19T13:16:31;14.10;99.90
24146;DHT22;12308;50.948;4.706;2023-11-19T13:18:57;14.10;99.90
24146;DHT22;12308;50.948;4.706;2023-11-19T13:21:23;14.10;99.90
24146;DHT22;12308;50.948;4.706;2023-11-19T13:23:49;14.20;99.90
24146;DHT22;12308;50.948;4.706;2023-11-19T13:26:15;14.10;99.90
24146;DHT22;12308;50.948;4.706;2023-11-19T13:28:41;14.20;99.90
24146;DHT22;12308;50.948;4.706;2023-11-19T13:31:07;14.40;99.90
24146;DHT22;12308;50.948;4.706;2023-11-19T13:33:33;14.40;99.90
24146;DHT22;12308;50.948;4.706;2023-11-19T13:35:59;14.40;99.90
24146;DHT22;12308;50.948;4.706;2023-11-19T13:38:31;14.40;99.90
24146;DHT22;12308;50.948;4.706;2023-11-19T13:40:57;14.30;99.90
24146;DHT22;12308;50.948;4.706;2023-11-19T13:43:22;14.20;99.90
24146;DHT22;12308;50.948;4.706;2023-11-19T13:45:48;14.30;99.90
24146;DHT22;12308;50.948;4.706;2023-11-19T13:48:14;14.30;99.90
24146;DHT22;12308;50.948;4.706;2023-11-19T13:50:39;14.30;99.90
24146;DHT22;12308;50.948;4.706;2023-11-19T13:53:05;14.30;99.90
24146;DHT22;12308;50.948;4.706;2023-11-19T13:55:30;14.50;99.90
24146;DHT22;12308;50.948;4.706;2023-11-19T13:57:56;14.50;99.90
24146;DHT22;12308;50.948;4.706;2023-11-19T14:00:22;14.40;99.90
24146;DHT22;12308;50.948;4.706;2023-11-19T14:02:49;14.20;99.90
24146;DHT22;12308;50.948;4.706;2023-11-19T14:05:15;14.20;99.90
24146;DHT22;12308;50.948;4.706;2023-11-19T14:07:43;14.10;99.90
24146;DHT22;12308;50.948;4.706;2023-11-19T14:10:09;14.10;99.90
24146;DHT22;12308;50.948;4.706;2023-11-19T14:12:37;14.00;99.90
24146;DHT22;12308;50.948;4.706;2023-11-19T14:15:07;14.00;99.90
24146;DHT22;12308;50.948;4.706;2023-11-19T14:17:33;14.00;99.90
24146;DHT22;12308;50.948;4.706;2023-11-19T14:20:00;14.00;99.90
24146;DHT22;12308;50.948;4.706;2023-11-19T14:22:25;14.10;99.90
24146;DHT22;12308;50.948;4.706;2023-11-19T14:24:51;14.10;99.90
24146;DHT22;12308;50.948;4.706;2023-11-19T14:27:17;14.20;99.90
24146;DHT22;12308;50.948;4.706;2023-11-19T14:29:43;14.20;99.90
24146;DHT22;12308;50.948;4.706;2023-11-19T14:32:10;14.10;99.90
24146;DHT22;12308;50.948;4.706;2023-11-19T14:34:36;14.00;99.90
24146;DHT22;12308;50.948;4.706;2023-11-19T14:37:01;13.90;99.90
24146;DHT22;12308;50.948;4.706;2023-11-19T14:39:27;14.00;99.90
24146;DHT22;12308;50.948;4.706;2023-11-19T14:41:54;14.00;99.90
24146;DHT22;12308;50.948;4.706;2023-11-19T14:44:23;14.10;99.90
24146;DHT22;12308;50.948;4.706;2023-11-19T14:46:49;14.00;99.90
24146;DHT22;12308;50.948;4.706;2023-11-19T14:49:15;14.00;99.90
24146;DHT22;12308;50.948;4.706;2023-11-19T14:51:41;13.80;99.90
24146;DHT22;12308;50.948;4.706;2023-11-19T14:54:07;13.70;99.90
24146;DHT22;12308;50.948;4.706;2023-11-19T14:56:32;13.80;99.90
24146;DHT22;12308;50.948;4.706;2023-11-19T14:58:58;13.70;99.90
24146;DHT22;12308;50.948;4.706;2023-11-19T15:01:24;13.60;99.90
24146;DHT22;12308;50.948;4.706;2023-11-19T15:03:50;13.70;99.90
24146;DHT22;12308;50.948;4.706;2023-11-19T15:06:16;13.70;99.90
24146;DHT22;12308;50.948;4.706;2023-11-19T15:08:42;13.60;99.90
24146;DHT22;12308;50.948;4.706;2023-11-19T15:11:10;13.60;99.90
24146;DHT22;12308;50.948;4.706;2023-11-19T15:13:37;13.70;99.90
24146;DHT22;12308;50.948;4.706;2023-11-19T15:16:04;13.60;99.90
24146;DHT22;12308;50.948;4.706;2023-11-19T15:18:32;13.70;99.90
24146;DHT22;12308;50.948;4.706;2023-11-19T15:20:58;13.60;99.90
24146;DHT22;12308;50.948;4.706;2023-11-19T15:23:23;13.60;99.90
24146;DHT22;12308;50.948;4.706;2023-11-19T15:25:49;13.60;99.90
24146;DHT22;12308;50.948;4.706;2023-11-19T15:28:15;13.60;99.90
24146;DHT22;12308;50.948;4.706;2023-11-19T15:30:40;13.60;99.90
24146;DHT22;12308;50.948;4.706;2023-11-19T15:33:06;13.60;99.90
24146;DHT22;12308;50.948;4.706;2023-11-19T15:35:34;13.70;99.90
24146;DHT22;12308;50.948;4.706;2023-11-19T15:38:00;13.60;99.90
24146;DHT22;12308;50.948;4.706;2023-11-19T15:40:26;13.60;99.90
24146;DHT22;12308;50.948;4.706;2023-11-19T15:42:53;13.60;99.90
24146;DHT22;12308;50.948;4.706;2023-11-19T15:45:20;13.60;99.90
24146;DHT22;12308;50.948;4.706;2023-11-19T15:47:46;13.70;99.90
24146;DHT22;12308;50.948;4.706;2023-11-19T15:50:12;13.80;99.90
24146;DHT22;12308;50.948;4.706;2023-11-19T15:52:38;13.90;99.90
24146;DHT22;12308;50.948;4.706;2023-11-19T15:55:04;13.90;99.90